createdAt,value
2023-04-18T00:01:02.929Z,6.50
2023-04-18T00:03:30.112Z,6.22
2023-04-18T00:05:58.229Z,6.22
2023-04-18T00:08:24.734Z,6.07
2023-04-18T00:10:51.257Z,5.20
2023-04-18T00:13:18.566Z,5.40
2023-04-18T00:15:46.335Z,6.28
2023-04-18T00:18:17.030Z,5.90
2023-04-18T00:20:43.624Z,6.15
2023-04-18T00:23:13.983Z,4.93
2023-04-18T00:25:40.967Z,5.65
2023-04-18T00:28:07.442Z,5.72
2023-04-18T00:30:34.141Z,5.80
2023-04-18T00:33:00.816Z,6.25
2023-04-18T00:35:27.474Z,5.80
2023-04-18T00:37:54.036Z,6.07
2023-04-18T00:40:20.576Z,5.18
2023-04-18T00:42:47.141Z,6.00
2023-04-18T00:45:14.130Z,6.40
2023-04-18T00:47:40.904Z,5.87
2023-04-18T00:50:09.720Z,6.22
2023-04-18T00:52:36.538Z,5.75
2023-04-18T00:55:06.190Z,5.15
2023-04-18T00:57:33.505Z,5.82
2023-04-18T01:00:01.409Z,5.93
2023-04-18T01:02:32.026Z,5.22
2023-04-18T01:04:59.389Z,6.50
2023-04-18T01:07:26.578Z,5.95
2023-04-18T01:09:57.120Z,5.97
2023-04-18T01:12:23.643Z,6.40
2023-04-18T01:14:50.376Z,5.75
2023-04-18T01:17:17.463Z,5.53
2023-04-18T01:19:44.480Z,5.85
2023-04-18T01:22:13.653Z,5.40
2023-04-18T01:24:41.006Z,5.53
2023-04-18T01:27:13.266Z,5.97
2023-04-18T01:29:40.724Z,5.70
2023-04-18T01:32:07.289Z,6.20
2023-04-18T01:34:33.821Z,6.43
2023-04-18T01:37:00.374Z,5.80
2023-04-18T01:39:27.139Z,6.00
2023-04-18T01:41:53.706Z,5.72
2023-04-18T01:44:20.412Z,6.07
2023-04-18T01:46:46.991Z,6.00
2023-04-18T01:49:13.721Z,5.43
2023-04-18T01:51:43.099Z,5.88
2023-04-18T01:54:09.688Z,5.90
2023-04-18T01:56:36.388Z,5.88
2023-04-18T01:59:02.973Z,5.85
2023-04-18T02:01:29.568Z,6.10
2023-04-18T02:03:58.485Z,5.80
2023-04-18T02:06:26.039Z,5.90
2023-04-18T02:08:53.065Z,6.20
2023-04-18T02:11:19.555Z,5.38
2023-04-18T02:13:46.050Z,5.73
2023-04-18T02:16:13.118Z,6.03
2023-04-18T02:18:40.180Z,5.40
2023-04-18T02:21:07.171Z,6.20
2023-04-18T02:23:33.714Z,6.15
2023-04-18T02:26:00.291Z,6.17
2023-04-18T02:28:26.789Z,6.82
2023-04-18T02:30:54.438Z,6.68
2023-04-18T02:33:21.032Z,6.25
2023-04-18T02:35:47.580Z,6.70
2023-04-18T02:38:15.808Z,5.93
2023-04-18T02:40:42.421Z,6.38
2023-04-18T02:43:08.984Z,6.70
2023-04-18T02:45:35.622Z,6.32
2023-04-18T02:48:02.665Z,6.28
2023-04-18T02:50:29.651Z,6.23
2023-04-18T02:52:57.721Z,6.35
2023-04-18T02:55:32.197Z,6.93
2023-04-18T02:57:59.846Z,6.28
2023-04-18T03:00:38.189Z,6.30
2023-04-18T03:03:23.060Z,6.27
2023-04-18T03:05:57.683Z,6.38
2023-04-18T03:08:24.480Z,6.18
2023-04-18T03:10:51.034Z,7.53
2023-04-18T03:13:21.097Z,7.15
2023-04-18T03:15:48.116Z,6.60
2023-04-18T03:18:15.122Z,7.55
2023-04-18T03:20:42.972Z,6.55
2023-04-18T03:23:09.533Z,6.45
2023-04-18T03:25:36.096Z,6.45
2023-04-18T03:28:03.771Z,7.87
2023-04-18T03:30:31.770Z,7.03
2023-04-18T03:33:02.748Z,6.65
2023-04-18T03:35:30.231Z,7.00
2023-04-18T03:37:57.238Z,8.07
2023-04-18T03:40:27.435Z,7.37
2023-04-18T03:42:59.702Z,7.68
2023-04-18T03:45:26.458Z,8.00
2023-04-18T03:47:53.116Z,7.57
2023-04-18T03:50:22.177Z,7.60
2023-04-18T03:52:49.644Z,7.47
2023-04-18T03:55:19.005Z,7.57
2023-04-18T03:57:46.238Z,7.22
2023-04-18T04:00:20.165Z,8.20
2023-04-18T04:02:57.412Z,6.70
2023-04-18T04:05:24.213Z,7.43
2023-04-18T04:07:51.060Z,6.80
2023-04-18T04:10:18.054Z,7.10
2023-04-18T04:12:44.670Z,7.60
2023-04-18T04:15:11.850Z,7.72
2023-04-18T04:17:44.210Z,7.10
2023-04-18T04:20:11.865Z,7.55
2023-04-18T04:22:38.844Z,7.00
2023-04-18T04:25:06.064Z,7.80
2023-04-18T04:27:38.864Z,7.43
2023-04-18T04:30:09.138Z,7.17
2023-04-18T04:32:38.877Z,7.78
2023-04-18T04:35:06.707Z,7.82
2023-04-18T04:37:33.554Z,7.82
2023-04-18T04:40:15.676Z,7.15
2023-04-18T04:42:49.375Z,7.77
2023-04-18T04:45:23.303Z,8.30
2023-04-18T04:47:49.940Z,7.55
2023-04-18T04:50:18.277Z,6.78
2023-04-18T04:52:44.938Z,7.43
2023-04-18T04:55:11.628Z,7.30
2023-04-18T04:57:40.013Z,7.65
2023-04-18T05:00:21.419Z,7.95
2023-04-18T05:02:48.906Z,7.78
2023-04-18T05:05:15.835Z,7.85
2023-04-18T05:07:42.462Z,7.30
2023-04-18T05:10:09.481Z,7.55
2023-04-18T05:12:36.090Z,7.72
2023-04-18T05:15:03.118Z,7.80
2023-04-18T05:17:29.830Z,8.23
2023-04-18T05:19:56.726Z,9.77
2023-04-18T05:22:23.261Z,7.88
2023-04-18T05:24:49.814Z,8.15
2023-04-18T05:27:18.099Z,8.77
2023-04-18T05:29:44.737Z,7.00
2023-04-18T05:32:11.855Z,7.63
2023-04-18T05:34:38.980Z,7.85
2023-04-18T05:37:05.669Z,7.60
2023-04-18T05:39:32.427Z,7.85
2023-04-18T05:41:58.992Z,7.43
2023-04-18T05:44:25.538Z,7.83
2023-04-18T05:46:52.100Z,8.52
2023-04-18T05:49:19.315Z,9.23
2023-04-18T05:51:46.509Z,7.60
2023-04-18T05:54:13.394Z,8.25
2023-04-18T05:56:40.467Z,9.27
2023-04-18T05:59:06.968Z,7.40
2023-04-18T06:01:33.607Z,7.93
2023-04-18T06:04:00.781Z,8.07
2023-04-18T06:06:27.678Z,8.40
2023-04-18T06:08:54.342Z,7.63
2023-04-18T06:11:21.595Z,7.78
2023-04-18T06:13:48.158Z,7.18
2023-04-18T06:16:14.862Z,6.93
2023-04-18T06:18:41.453Z,7.32
2023-04-18T06:21:07.980Z,7.00
2023-04-18T06:23:34.546Z,7.05
2023-04-18T06:26:01.095Z,6.65
2023-04-18T06:28:27.589Z,6.93
2023-04-18T06:30:54.132Z,6.50
2023-04-18T06:33:21.349Z,6.47
2023-04-18T06:35:47.900Z,6.75
2023-04-18T06:38:14.557Z,6.30
2023-04-18T06:40:41.409Z,6.97
2023-04-18T06:43:07.992Z,6.78
2023-04-18T06:45:35.286Z,6.63
2023-04-18T06:48:05.457Z,5.75
2023-04-18T06:50:32.012Z,7.50
2023-04-18T06:52:58.524Z,5.95
2023-04-18T06:55:25.003Z,6.28
2023-04-18T06:57:51.477Z,6.10
2023-04-18T07:00:18.117Z,5.90
2023-04-18T07:02:44.808Z,5.78
2023-04-18T07:05:11.483Z,6.35
2023-04-18T07:07:37.990Z,6.38
2023-04-18T07:10:06.201Z,5.73
2023-04-18T07:12:33.744Z,5.85
2023-04-18T07:15:00.335Z,5.18
2023-04-18T07:17:26.887Z,5.88
2023-04-18T07:19:53.399Z,6.43
2023-04-18T07:22:19.980Z,5.33
2023-04-18T07:24:46.453Z,5.22
2023-04-18T07:27:12.987Z,5.07
2023-04-18T07:29:39.501Z,5.35
2023-04-18T07:32:08.142Z,5.22
2023-04-18T07:34:36.653Z,4.80
2023-04-18T07:37:03.609Z,5.20
2023-04-18T07:39:31.907Z,4.63
2023-04-18T07:41:58.840Z,5.68
2023-04-18T07:44:25.457Z,4.53
2023-04-18T07:46:52.199Z,5.43
2023-04-18T07:49:18.789Z,4.55
2023-04-18T07:51:45.367Z,4.90
2023-04-18T07:54:12.099Z,4.45
2023-04-18T07:56:38.643Z,5.20
2023-04-18T07:59:05.497Z,4.80
2023-04-18T08:01:32.195Z,5.63
2023-04-18T08:04:01.607Z,5.22
2023-04-18T08:06:29.071Z,4.75
2023-04-18T08:08:55.643Z,4.90
2023-04-18T08:11:23.384Z,4.80
2023-04-18T08:13:50.290Z,4.97
2023-04-18T08:16:17.593Z,4.68
2023-04-18T08:18:44.343Z,4.50
2023-04-18T08:21:11.018Z,5.18
2023-04-18T08:23:37.689Z,4.40
2023-04-18T08:26:04.328Z,5.10
2023-04-18T08:28:31.201Z,5.60
2023-04-18T08:30:58.037Z,4.75
2023-04-18T08:33:24.768Z,4.70
2023-04-18T08:35:51.596Z,4.93
2023-04-18T08:38:18.864Z,4.72
2023-04-18T08:40:46.514Z,3.78
2023-04-18T08:43:15.187Z,4.40
2023-04-18T08:45:43.337Z,4.53
2023-04-18T08:48:17.701Z,4.63
2023-04-18T08:50:45.520Z,4.20
2023-04-18T08:53:12.992Z,4.78
2023-04-18T08:55:40.496Z,3.47
2023-04-18T08:58:07.509Z,4.47
2023-04-18T09:00:35.357Z,3.33
2023-04-18T09:03:03.103Z,4.03
2023-04-18T09:05:30.130Z,3.33
2023-04-18T09:07:57.082Z,3.92
2023-04-18T09:10:32.640Z,4.18
2023-04-18T09:13:03.394Z,3.87
2023-04-18T09:15:30.888Z,4.15
2023-04-18T09:18:00.046Z,5.32
2023-04-18T09:20:42.025Z,3.65
2023-04-18T09:23:11.228Z,4.65
2023-04-18T09:25:46.765Z,5.47
2023-04-18T09:28:28.277Z,4.88
2023-04-18T09:30:56.938Z,5.40
2023-04-18T09:33:29.063Z,5.35
2023-04-18T09:35:57.332Z,5.95
2023-04-18T09:38:44.515Z,10.13
2023-04-18T09:41:12.887Z,7.90
2023-04-18T09:43:39.903Z,6.78
2023-04-18T09:46:08.401Z,6.30
2023-04-18T09:48:35.832Z,7.03
2023-04-18T09:51:07.666Z,6.57
2023-04-18T09:53:39.761Z,6.43
2023-04-18T09:56:13.179Z,6.50
2023-04-18T09:58:42.518Z,6.10
2023-04-18T10:01:09.309Z,6.20
2023-04-18T10:03:44.491Z,6.70
2023-04-18T10:06:11.531Z,7.22
2023-04-18T10:08:39.702Z,6.05
2023-04-18T10:11:06.340Z,6.18
2023-04-18T10:13:35.153Z,7.03
2023-04-18T10:16:02.661Z,6.83
2023-04-18T10:18:29.217Z,7.40
2023-04-18T10:21:05.734Z,7.93
2023-04-18T10:23:32.359Z,7.35
2023-04-18T10:25:59.166Z,6.72
2023-04-18T10:28:27.424Z,7.20
2023-04-18T10:31:02.876Z,6.30
2023-04-18T10:33:34.154Z,7.25
2023-04-18T10:36:09.723Z,8.15
2023-04-18T10:38:44.814Z,7.80
2023-04-18T10:41:30.458Z,7.70
2023-04-18T10:44:15.991Z,7.43
2023-04-18T10:46:52.751Z,7.40
2023-04-18T10:49:26.799Z,7.00
2023-04-18T10:51:59.099Z,6.63
2023-04-18T10:54:35.886Z,6.27
2023-04-18T10:57:04.185Z,6.07
2023-04-18T10:59:32.268Z,6.30
2023-04-18T11:02:12.389Z,6.85
2023-04-18T11:04:39.413Z,5.90
2023-04-18T11:07:05.986Z,5.83
2023-04-18T11:09:32.523Z,5.93
2023-04-18T11:12:07.403Z,5.80
2023-04-18T11:14:47.665Z,5.57
2023-04-18T11:17:18.660Z,6.10
2023-04-18T11:19:45.569Z,7.23
2023-04-18T11:22:12.367Z,6.22
2023-04-18T11:24:39.199Z,5.75
2023-04-18T11:27:09.503Z,7.07
2023-04-18T11:29:36.186Z,6.75
2023-04-18T11:32:06.276Z,7.20
2023-04-18T11:34:33.142Z,7.90
2023-04-18T11:37:00.196Z,8.15
2023-04-18T11:39:26.750Z,7.35
2023-04-18T11:41:54.706Z,8.73
2023-04-18T11:44:24.939Z,8.53
2023-04-18T11:46:54.693Z,8.75
2023-04-18T11:49:32.044Z,8.35
2023-04-18T11:51:59.566Z,9.30
2023-04-18T11:54:39.329Z,8.95
2023-04-18T11:57:07.420Z,9.20
2023-04-18T11:59:34.103Z,8.32
2023-04-18T12:02:15.426Z,8.77
2023-04-18T12:05:00.054Z,8.57
2023-04-18T12:07:37.491Z,8.60
2023-04-18T12:10:09.908Z,7.50
2023-04-18T12:12:36.556Z,8.30
2023-04-18T12:15:16.323Z,8.10
2023-04-18T12:17:53.829Z,8.82
2023-04-18T12:20:20.457Z,8.77
2023-04-18T12:22:51.559Z,9.40
2023-04-18T12:25:26.997Z,8.73
2023-04-18T12:27:54.127Z,8.00
2023-04-18T12:30:22.484Z,8.18
2023-04-18T12:32:50.695Z,9.02
2023-04-18T12:35:19.031Z,8.80
2023-04-18T12:37:51.260Z,8.13
2023-04-18T12:40:21.879Z,8.48
2023-04-18T12:42:49.699Z,8.85
2023-04-18T12:45:17.510Z,8.40
2023-04-18T12:47:47.129Z,8.47
2023-04-18T12:50:22.336Z,7.75
2023-04-18T12:52:49.418Z,7.45
2023-04-18T12:55:15.972Z,8.13
2023-04-18T12:57:43.355Z,8.50
2023-04-18T13:00:11.148Z,7.23
2023-04-18T13:02:39.727Z,8.75
2023-04-18T13:05:07.944Z,8.10
2023-04-18T13:07:38.001Z,8.82
2023-04-18T13:10:05.145Z,8.35
2023-04-18T13:12:31.692Z,8.00
2023-04-18T13:14:58.347Z,8.55
2023-04-18T13:17:24.975Z,6.80
2023-04-18T13:19:51.920Z,6.75
2023-04-18T13:22:20.381Z,7.75
2023-04-18T13:24:47.574Z,7.60
2023-04-18T13:27:14.940Z,7.30
2023-04-18T13:29:43.136Z,6.45
2023-04-18T13:32:09.738Z,7.13
2023-04-18T13:34:44.898Z,7.82
2023-04-18T13:37:11.942Z,6.77
2023-04-18T13:39:38.616Z,7.53
2023-04-18T13:42:05.204Z,7.70
2023-04-18T13:44:31.684Z,7.28
2023-04-18T13:46:58.281Z,7.40
2023-04-18T13:49:24.858Z,7.57
2023-04-18T13:51:57.407Z,7.60
2023-04-18T13:54:26.466Z,8.13
2023-04-18T13:56:57.701Z,7.63
2023-04-18T13:59:24.960Z,7.78
2023-04-18T14:01:52.361Z,7.83
2023-04-18T14:04:21.160Z,7.97
2023-04-18T14:06:48.927Z,7.15
2023-04-18T14:09:16.659Z,7.47
2023-04-18T14:11:43.330Z,7.22
2023-04-18T14:14:09.908Z,7.40
2023-04-18T14:16:36.528Z,6.95
2023-04-18T14:19:02.998Z,7.38
2023-04-18T14:21:29.611Z,6.75
2023-04-18T14:23:56.285Z,6.13
2023-04-18T14:26:22.872Z,8.53
2023-04-18T14:28:49.474Z,6.47
2023-04-18T14:31:16.260Z,6.68
2023-04-18T14:33:42.933Z,6.07
2023-04-18T14:36:09.766Z,6.43
2023-04-18T14:38:36.488Z,6.60
2023-04-18T14:41:06.247Z,6.90
2023-04-18T14:43:32.791Z,7.00
2023-04-18T14:45:59.840Z,6.82
2023-04-18T14:48:27.415Z,7.45
2023-04-18T14:51:02.564Z,6.90
2023-04-18T14:53:29.365Z,7.28
2023-04-18T14:55:56.362Z,7.32
2023-04-18T14:58:22.945Z,6.50
2023-04-18T15:00:49.517Z,7.35
2023-04-18T15:03:19.237Z,5.97
2023-04-18T15:05:49.109Z,6.30
2023-04-18T15:08:16.112Z,6.32
2023-04-18T15:10:42.809Z,6.60
2023-04-18T15:13:10.970Z,7.40
2023-04-18T15:15:37.934Z,7.07
2023-04-18T15:18:04.795Z,6.68
2023-04-18T15:20:31.383Z,7.03
2023-04-18T15:22:57.933Z,6.00
2023-04-18T15:25:26.054Z,7.22
2023-04-18T15:27:52.859Z,6.53
2023-04-18T15:30:19.738Z,6.05
2023-04-18T15:32:47.610Z,6.97
2023-04-18T15:35:14.315Z,6.90
2023-04-18T15:37:41.431Z,7.05
2023-04-18T15:40:10.413Z,6.63
2023-04-18T15:42:36.898Z,6.88
2023-04-18T15:45:04.489Z,7.15
2023-04-18T15:47:33.876Z,6.45
2023-04-18T15:50:00.649Z,6.88
2023-04-18T15:52:27.193Z,6.50
2023-04-18T15:54:54.034Z,6.50
2023-04-18T15:57:21.081Z,6.60
2023-04-18T15:59:47.587Z,6.55
2023-04-18T16:02:14.197Z,6.65
2023-04-18T16:04:40.922Z,6.50
2023-04-18T16:07:08.233Z,6.57
2023-04-18T16:09:34.843Z,5.50
2023-04-18T16:12:03.169Z,5.90
2023-04-18T16:14:31.176Z,5.90
2023-04-18T16:16:59.486Z,6.43
2023-04-18T16:19:26.409Z,5.88
2023-04-18T16:21:52.906Z,5.95
2023-04-18T16:24:19.563Z,5.90
2023-04-18T16:26:46.357Z,6.50
2023-04-18T16:29:12.836Z,5.80
2023-04-18T16:31:39.470Z,6.72
2023-04-18T16:34:06.190Z,6.40
2023-04-18T16:36:34.614Z,6.00
2023-04-18T16:39:01.151Z,5.60
2023-04-18T16:41:27.726Z,5.73
2023-04-18T16:43:54.266Z,6.43
2023-04-18T16:46:20.886Z,6.13
2023-04-18T16:48:48.384Z,6.30
2023-04-18T16:51:16.121Z,5.93
2023-04-18T16:53:42.714Z,5.93
2023-04-18T16:56:09.341Z,6.00
2023-04-18T16:58:35.860Z,5.70
2023-04-18T17:01:02.471Z,5.40
2023-04-18T17:03:29.095Z,5.10
2023-04-18T17:05:55.923Z,4.97
2023-04-18T17:08:22.496Z,5.13
2023-04-18T17:10:51.826Z,4.32
2023-04-18T17:13:18.514Z,4.97
2023-04-18T17:15:45.088Z,5.05
2023-04-18T17:18:11.752Z,4.73
2023-04-18T17:20:38.325Z,4.43
2023-04-18T17:23:04.900Z,4.28
2023-04-18T17:25:31.843Z,4.65
2023-04-18T17:27:58.650Z,4.13
2023-04-18T17:30:25.176Z,4.20
2023-04-18T17:32:51.766Z,4.32
2023-04-18T17:35:18.520Z,3.63
2023-04-18T17:37:46.762Z,3.75
2023-04-18T17:40:13.731Z,3.53
2023-04-18T17:42:40.305Z,3.77
2023-04-18T17:45:09.770Z,3.65
2023-04-18T17:47:36.725Z,3.75
2023-04-18T17:50:07.028Z,3.72
2023-04-18T17:52:33.582Z,4.28
2023-04-18T17:55:01.656Z,3.67
2023-04-18T17:57:30.359Z,3.63
2023-04-18T17:59:57.076Z,3.55
2023-04-18T18:02:23.769Z,4.00
2023-04-18T18:04:51.399Z,4.15
2023-04-18T18:07:18.411Z,4.03
2023-04-18T18:09:45.563Z,3.92
2023-04-18T18:12:12.235Z,3.90
2023-04-18T18:14:40.452Z,4.07
2023-04-18T18:17:07.058Z,4.18
2023-04-18T18:19:37.511Z,4.37
2023-04-18T18:22:04.060Z,3.90
2023-04-18T18:24:30.578Z,4.03
2023-04-18T18:26:58.094Z,4.20
2023-04-18T18:29:24.660Z,4.80
2023-04-18T18:31:51.261Z,4.33
2023-04-18T18:34:17.976Z,4.38
2023-04-18T18:36:44.542Z,4.93
2023-04-18T18:39:11.167Z,4.25
2023-04-18T18:41:37.751Z,5.03
2023-04-18T18:44:04.369Z,4.43
2023-04-18T18:46:31.080Z,4.63
2023-04-18T18:48:57.689Z,4.93
2023-04-18T18:51:24.269Z,5.38
2023-04-18T18:53:50.766Z,5.07
2023-04-18T18:56:17.303Z,5.00
2023-04-18T18:58:43.845Z,4.50
2023-04-18T19:01:11.462Z,5.15
2023-04-18T19:03:38.284Z,5.40
2023-04-18T19:06:07.205Z,5.88
2023-04-18T19:08:34.186Z,5.63
2023-04-18T19:11:00.794Z,4.90
2023-04-18T19:13:27.357Z,5.18
2023-04-18T19:15:53.906Z,4.70
2023-04-18T19:18:21.288Z,5.07
2023-04-18T19:20:49.728Z,5.30
2023-04-18T19:23:19.729Z,4.70
2023-04-18T19:25:46.618Z,4.93
2023-04-18T19:28:14.354Z,4.53
2023-04-18T19:30:42.189Z,4.45
2023-04-18T19:33:08.857Z,4.80
2023-04-18T19:35:37.850Z,5.13
2023-04-18T19:38:04.576Z,5.07
2023-04-18T19:40:31.141Z,4.70
2023-04-18T19:42:58.048Z,4.88
2023-04-18T19:45:24.714Z,5.27
2023-04-18T19:47:51.354Z,4.80
2023-04-18T19:50:17.980Z,5.03
2023-04-18T19:52:44.503Z,4.60
2023-04-18T19:55:11.258Z,4.47
2023-04-18T19:57:42.081Z,5.17
2023-04-18T20:00:13.080Z,5.28
2023-04-18T20:02:40.694Z,5.10
2023-04-18T20:05:08.512Z,4.80
2023-04-18T20:07:35.917Z,5.30
2023-04-18T20:10:02.468Z,5.07
2023-04-18T20:12:29.088Z,5.10
2023-04-18T20:14:56.121Z,5.03
2023-04-18T20:17:22.718Z,5.22
2023-04-18T20:19:49.785Z,5.15
2023-04-18T20:22:17.129Z,4.53
2023-04-18T20:24:45.007Z,5.07
2023-04-18T20:27:11.865Z,4.60
2023-04-18T20:29:38.420Z,5.07
2023-04-18T20:32:05.729Z,4.97
2023-04-18T20:34:32.579Z,5.03
2023-04-18T20:36:59.965Z,4.63
2023-04-18T20:39:27.983Z,5.20
2023-04-18T20:41:57.700Z,5.15
2023-04-18T20:44:24.909Z,4.80
2023-04-18T20:46:54.660Z,5.10
2023-04-18T20:49:21.181Z,4.97
2023-04-18T20:51:47.714Z,5.55
2023-04-18T20:54:14.650Z,4.70
2023-04-18T20:56:41.382Z,4.65
2023-04-18T20:59:07.908Z,4.63
2023-04-18T21:01:36.154Z,4.88
2023-04-18T21:04:03.804Z,4.55
2023-04-18T21:06:30.947Z,4.68
2023-04-18T21:08:57.513Z,5.25
2023-04-18T21:11:24.053Z,4.80
2023-04-18T21:13:50.598Z,5.50
2023-04-18T21:16:17.181Z,4.80
2023-04-18T21:18:43.761Z,4.82
2023-04-18T21:21:10.332Z,4.72
2023-04-18T21:23:44.177Z,4.67
2023-04-18T21:26:12.428Z,5.03
2023-04-18T21:28:56.380Z,5.10
2023-04-18T21:31:23.695Z,4.60
2023-04-18T21:33:55.698Z,4.93
2023-04-18T21:36:24.250Z,5.00
2023-04-18T21:38:55.978Z,4.47
2023-04-18T21:41:23.827Z,4.80
2023-04-18T21:43:50.886Z,5.15
2023-04-18T21:46:18.178Z,5.10
2023-04-18T21:48:46.988Z,5.20
2023-04-18T21:51:15.343Z,4.93
2023-04-18T21:53:42.305Z,5.07
2023-04-18T21:56:09.273Z,5.15
2023-04-18T21:58:35.806Z,4.78
2023-04-18T22:01:03.099Z,5.13
2023-04-18T22:03:29.877Z,4.85
2023-04-18T22:05:57.489Z,4.88
2023-04-18T22:08:28.230Z,5.70
2023-04-18T22:10:57.627Z,5.15
2023-04-18T22:13:25.171Z,4.93
2023-04-18T22:15:51.806Z,5.07
2023-04-18T22:18:19.090Z,5.13
2023-04-18T22:20:46.881Z,5.05
2023-04-18T22:23:13.845Z,5.47
2023-04-18T22:25:40.845Z,5.70
2023-04-18T22:28:07.581Z,4.85
2023-04-18T22:30:34.577Z,5.47
2023-04-18T22:33:01.287Z,5.40
2023-04-18T22:35:27.985Z,6.15
2023-04-18T22:37:55.805Z,5.50
2023-04-18T22:40:22.438Z,5.15
2023-04-18T22:42:51.728Z,4.80
2023-04-18T22:45:19.168Z,5.70
2023-04-18T22:47:46.673Z,5.32
2023-04-18T22:50:14.247Z,5.50
2023-04-18T22:52:41.198Z,5.68
2023-04-18T22:55:09.038Z,5.90
2023-04-18T22:57:35.591Z,5.78
2023-04-18T23:00:02.379Z,5.00
2023-04-18T23:02:29.041Z,5.63
2023-04-18T23:04:58.271Z,5.80
2023-04-18T23:07:24.849Z,6.45
2023-04-18T23:09:51.355Z,5.75
2023-04-18T23:12:17.881Z,5.75
2023-04-18T23:14:44.378Z,5.80
2023-04-18T23:17:10.897Z,6.13
2023-04-18T23:19:37.469Z,6.07
2023-04-18T23:22:04.096Z,5.97
2023-04-18T23:24:30.968Z,5.80
2023-04-18T23:26:58.457Z,6.50
2023-04-18T23:29:25.059Z,5.75
2023-04-18T23:31:51.644Z,6.13
2023-04-18T23:34:18.264Z,6.68
2023-04-18T23:36:45.034Z,6.47
2023-04-18T23:39:11.830Z,6.23
2023-04-18T23:41:38.363Z,6.22
2023-04-18T23:44:04.983Z,6.07
2023-04-18T23:46:31.526Z,6.50
2023-04-18T23:48:58.169Z,6.88
2023-04-18T23:51:24.750Z,6.30
2023-04-18T23:53:51.593Z,6.90
2023-04-18T23:56:18.129Z,7.18
2023-04-18T23:58:44.641Z,6.38
